Language selection

My Weather Profile Weather Topics  | 

Juan de Fuca Strait - west entrance: Past 24 Hour Conditions

 

Halibut Bank - 46146

01:00 AM PDT 17 October 2021Buoy position: 49.34N 123.72W
Disclaimer

This table is a summary of hourly weather conditions for the past 24 hours.
Please note that these observations might not always be representative of weather conditions over their associated marine area.

Date / Time
(PDT)
Wind(knots) Wave height(m) Wave period(s) Pressure(kPa) Air tempC) Water tempC)
17 October 2021
1:00 E 12 gust 12 0.1 4.0 100.7 11 11
0:00 ESE 8 gust 8 0.1 4.0 100.8 11 11
16 October 2021
23:00 ESE 8 gust 8 0.2 4.0 100.8 11 11
22:00 ESE 4 gust 6 0.3 4.0 100.8 11 11
21:00 ESE 6 gust 6 0.3 4.0 100.9 12 11
20:00 E 6 gust 8 0.3 4.0 100.8 12 11
19:00 E 8 gust 10 0.5 4.0 100.9 12 11
18:00 NNE 10 gust 12 0.6 4.0 100.9 13 11
17:00 N/A N/A N/A N/A N/A N/A
16:00 N/A N/A N/A N/A N/A N/A
15:00 ESE 22 gust 25 0.9 4.0 100.8 12 11
14:00 ESE 23 gust 27 0.9 4.0 100.9 12 11
13:00 ESE 23 gust 27 0.7 4.0 101.0 12 11
12:00 ESE 23 gust 27 0.8 4.0 101.1 12 11
11:00 ESE 17 gust 22 1.0 4.0 101.2 11 11
10:00 ESE 17 gust 22 1.0 4.0 101.2 11 11
9:00 ESE 23 gust 27 1.1 4.0 101.2 12 11
8:00 ESE 22 gust 25 1.2 4.0 101.2 12 11
7:00 ESE 23 gust 27 1.2 4.0 101.2 11 11
6:00 ESE 22 gust 27 1.2 4.0 101.2 11 11
5:00 ESE 22 gust 25 1.1 4.0 101.3 12 11
4:00 ESE 23 gust 25 1.1 4.0 101.4 12 11
3:00 ESE 22 gust 25 N/A 4.0 101.5 12 11
2:00 ESE 22 gust 25 N/A 4.0 101.6 12 11
1:00 ESE 22 gust 25 N/A 4.0 101.6 12 11

Zoom-in to make a selection

Map of Pacific - Georgia Basin marine weather areas Sentry Shoal - 46131 Halibut Bank - 46146 La Perouse Bank - 46206 Georgia Strait - 46303 English Bay - 46304 Discovery Island Esquimalt Harbour Kelp Reefs Malahat Race Rocks Lightstation Saturna Island Sheringham Point University of Victoria Victoria Gonzales Victoria Int'l Airport Ballenas Islands Campbell River Airport Comox Airport Entrance Island Fanny Island Nanaimo Airport Sisters Islets Estevan Point Port Alberni Tofino Airport Grief Point Howe Sound - Pam Rocks Powell River Airport Sechelt Squamish Airport Point Atkinson Sand Heads Lightstation Tsawwassen Ferry Terminal Vancouver Int'l Airport Vancouver Harbour West Vancouver
Legend:
buoy Buoy
land station Land Station

Pacific - Georgia Basin Area

Another Region

What we are doing

Date modified: